sensor_id;sensor_type;location;lat;lon;timestamp;P1;durP1;ratioP1;P2;durP2;ratioP2
42840;SDS011;28491;46.898;7.660;2022-11-06T00:00:08;35.42;;;6.88;;
42840;SDS011;28491;46.898;7.660;2022-11-06T00:02:34;11.57;;;4.70;;
42840;SDS011;28491;46.898;7.660;2022-11-06T00:05:00;10.95;;;4.88;;
42840;SDS011;28491;46.898;7.660;2022-11-06T00:07:46;8.57;;;4.32;;
42840;SDS011;28491;46.898;7.660;2022-11-06T00:10:15;7.78;;;4.55;;
42840;SDS011;28491;46.898;7.660;2022-11-06T00:12:41;6.43;;;4.57;;
42840;SDS011;28491;46.898;7.660;2022-11-06T00:15:06;6.00;;;4.05;;
42840;SDS011;28491;46.898;7.660;2022-11-06T00:17:32;7.90;;;4.30;;
42840;SDS011;28491;46.898;7.660;2022-11-06T00:19:58;6.03;;;3.80;;
42840;SDS011;28491;46.898;7.660;2022-11-06T00:22:23;6.35;;;4.32;;
42840;SDS011;28491;46.898;7.660;2022-11-06T00:24:49;5.75;;;4.43;;
42840;SDS011;28491;46.898;7.660;2022-11-06T00:27:15;5.43;;;3.90;;
42840;SDS011;28491;46.898;7.660;2022-11-06T00:29:40;6.13;;;3.92;;
42840;SDS011;28491;46.898;7.660;2022-11-06T00:32:06;4.75;;;3.15;;
42840;SDS011;28491;46.898;7.660;2022-11-06T00:34:32;6.72;;;3.35;;
42840;SDS011;28491;46.898;7.660;2022-11-06T00:36:58;5.07;;;4.10;;
42840;SDS011;28491;46.898;7.660;2022-11-06T00:39:23;4.97;;;4.00;;
42840;SDS011;28491;46.898;7.660;2022-11-06T00:41:49;5.20;;;4.18;;
42840;SDS011;28491;46.898;7.660;2022-11-06T00:44:14;10.68;;;4.43;;
42840;SDS011;28491;46.898;7.660;2022-11-06T00:46:40;4.95;;;3.85;;
42840;SDS011;28491;46.898;7.660;2022-11-06T00:49:05;4.55;;;3.33;;
42840;SDS011;28491;46.898;7.660;2022-11-06T00:51:33;5.97;;;4.50;;
42840;SDS011;28491;46.898;7.660;2022-11-06T00:54:00;5.20;;;4.23;;
42840;SDS011;28491;46.898;7.660;2022-11-06T00:56:28;6.93;;;4.75;;
42840;SDS011;28491;46.898;7.660;2022-11-06T00:58:54;5.65;;;4.13;;
42840;SDS011;28491;46.898;7.660;2022-11-06T01:01:23;5.15;;;3.85;;
42840;SDS011;28491;46.898;7.660;2022-11-06T01:03:51;7.32;;;3.88;;
42840;SDS011;28491;46.898;7.660;2022-11-06T01:06:26;23.60;;;5.05;;
42840;SDS011;28491;46.898;7.660;2022-11-06T01:08:53;17.48;;;5.53;;
42840;SDS011;28491;46.898;7.660;2022-11-06T01:11:21;16.42;;;4.50;;
42840;SDS011;28491;46.898;7.660;2022-11-06T01:13:49;19.75;;;5.70;;
42840;SDS011;28491;46.898;7.660;2022-11-06T01:16:16;7.77;;;4.47;;
42840;SDS011;28491;46.898;7.660;2022-11-06T01:18:44;40.85;;;6.82;;
42840;SDS011;28491;46.898;7.660;2022-11-06T01:21:11;10.30;;;4.05;;
42840;SDS011;28491;46.898;7.660;2022-11-06T01:23:41;6.32;;;3.90;;
42840;SDS011;28491;46.898;7.660;2022-11-06T01:26:08;6.97;;;3.88;;
42840;SDS011;28491;46.898;7.660;2022-11-06T01:28:35;5.50;;;4.03;;
42840;SDS011;28491;46.898;7.660;2022-11-06T01:31:02;7.35;;;3.67;;
42840;SDS011;28491;46.898;7.660;2022-11-06T01:33:29;5.75;;;4.03;;
42840;SDS011;28491;46.898;7.660;2022-11-06T01:35:55;5.28;;;3.75;;
42840;SDS011;28491;46.898;7.660;2022-11-06T01:38:20;5.20;;;3.28;;
42840;SDS011;28491;46.898;7.660;2022-11-06T01:40:46;4.57;;;3.20;;
42840;SDS011;28491;46.898;7.660;2022-11-06T01:43:17;5.30;;;3.90;;
42840;SDS011;28491;46.898;7.660;2022-11-06T01:45:45;5.75;;;3.22;;
42840;SDS011;28491;46.898;7.660;2022-11-06T01:48:12;6.53;;;3.05;;
42840;SDS011;28491;46.898;7.660;2022-11-06T01:50:40;5.75;;;3.15;;
42840;SDS011;28491;46.898;7.660;2022-11-06T01:53:07;4.03;;;2.90;;
42840;SDS011;28491;46.898;7.660;2022-11-06T01:55:34;3.92;;;2.80;;
42840;SDS011;28491;46.898;7.660;2022-11-06T01:58:04;4.50;;;3.63;;
42840;SDS011;28491;46.898;7.660;2022-11-06T02:00:32;6.50;;;3.25;;
42840;SDS011;28491;46.898;7.660;2022-11-06T02:02:57;6.22;;;3.25;;
42840;SDS011;28491;46.898;7.660;2022-11-06T02:05:24;5.82;;;3.45;;
42840;SDS011;28491;46.898;7.660;2022-11-06T02:07:50;4.20;;;2.80;;
42840;SDS011;28491;46.898;7.660;2022-11-06T02:10:17;5.63;;;3.67;;
42840;SDS011;28491;46.898;7.660;2022-11-06T02:18:06;5.55;;;3.28;;
42840;SDS011;28491;46.898;7.660;2022-11-06T02:21:20;4.97;;;3.15;;
42840;SDS011;28491;46.898;7.660;2022-11-06T02:23:55;4.60;;;3.58;;
42840;SDS011;28491;46.898;7.660;2022-11-06T02:29:40;3.60;;;2.78;;
42840;SDS011;28491;46.898;7.660;2022-11-06T02:32:37;5.05;;;3.38;;
42840;SDS011;28491;46.898;7.660;2022-11-06T02:35:27;5.50;;;3.40;;
42840;SDS011;28491;46.898;7.660;2022-11-06T02:38:03;5.00;;;2.97;;
42840;SDS011;28491;46.898;7.660;2022-11-06T02:40:32;4.05;;;2.75;;
42840;SDS011;28491;46.898;7.660;2022-11-06T02:43:02;4.50;;;3.10;;
42840;SDS011;28491;46.898;7.660;2022-11-06T02:45:33;5.70;;;2.83;;
42840;SDS011;28491;46.898;7.660;2022-11-06T02:48:04;3.90;;;2.70;;
42840;SDS011;28491;46.898;7.660;2022-11-06T02:50:34;3.88;;;2.80;;
42840;SDS011;28491;46.898;7.660;2022-11-06T02:53:07;4.32;;;2.97;;
42840;SDS011;28491;46.898;7.660;2022-11-06T02:55:37;4.30;;;3.10;;
42840;SDS011;28491;46.898;7.660;2022-11-06T02:58:27;3.97;;;2.67;;
42840;SDS011;28491;46.898;7.660;2022-11-06T03:01:43;3.50;;;2.70;;
42840;SDS011;28491;46.898;7.660;2022-11-06T03:03:54;4.22;;;2.88;;
42840;SDS011;28491;46.898;7.660;2022-11-06T03:06:48;4.15;;;2.92;;
42840;SDS011;28491;46.898;7.660;2022-11-06T03:09:21;4.95;;;3.22;;
42840;SDS011;28491;46.898;7.660;2022-11-06T03:12:17;4.63;;;3.42;;
42840;SDS011;28491;46.898;7.660;2022-11-06T03:14:52;4.53;;;3.25;;
42840;SDS011;28491;46.898;7.660;2022-11-06T03:25:52;4.35;;;3.20;;
42840;SDS011;28491;46.898;7.660;2022-11-06T03:28:28;4.75;;;3.13;;
42840;SDS011;28491;46.898;7.660;2022-11-06T03:31:17;3.80;;;2.90;;
42840;SDS011;28491;46.898;7.660;2022-11-06T03:33:49;5.07;;;3.28;;
42840;SDS011;28491;46.898;7.660;2022-11-06T03:38:50;4.03;;;2.78;;
42840;SDS011;28491;46.898;7.660;2022-11-06T03:41:22;5.78;;;3.22;;
42840;SDS011;28491;46.898;7.660;2022-11-06T03:43:55;3.15;;;2.53;;
42840;SDS011;28491;46.898;7.660;2022-11-06T03:48:51;4.32;;;3.20;;
42840;SDS011;28491;46.898;7.660;2022-11-06T03:51:25;4.20;;;3.00;;
42840;SDS011;28491;46.898;7.660;2022-11-06T03:54:06;5.15;;;3.03;;
42840;SDS011;28491;46.898;7.660;2022-11-06T03:56:55;4.00;;;2.78;;
42840;SDS011;28491;46.898;7.660;2022-11-06T03:59:25;3.17;;;2.30;;
42840;SDS011;28491;46.898;7.660;2022-11-06T04:01:56;3.25;;;2.28;;
42840;SDS011;28491;46.898;7.660;2022-11-06T04:04:34;4.28;;;3.08;;
42840;SDS011;28491;46.898;7.660;2022-11-06T04:07:07;3.80;;;2.65;;
42840;SDS011;28491;46.898;7.660;2022-11-06T04:09:58;4.35;;;2.95;;
42840;SDS011;28491;46.898;7.660;2022-11-06T04:12:45;3.65;;;2.75;;
42840;SDS011;28491;46.898;7.660;2022-11-06T04:15:32;5.90;;;3.20;;
42840;SDS011;28491;46.898;7.660;2022-11-06T04:18:26;4.13;;;2.75;;
42840;SDS011;28491;46.898;7.660;2022-11-06T04:24:02;5.32;;;3.38;;
42840;SDS011;28491;46.898;7.660;2022-11-06T04:27:16;5.15;;;2.63;;
42840;SDS011;28491;46.898;7.660;2022-11-06T04:32:43;4.13;;;2.70;;
42840;SDS011;28491;46.898;7.660;2022-11-06T04:35:28;6.32;;;3.25;;
42840;SDS011;28491;46.898;7.660;2022-11-06T04:41:05;4.82;;;2.85;;
42840;SDS011;28491;46.898;7.660;2022-11-06T04:43:47;7.78;;;3.30;;
42840;SDS011;28491;46.898;7.660;2022-11-06T04:46:23;4.07;;;3.08;;
42840;SDS011;28491;46.898;7.660;2022-11-06T04:48:53;4.82;;;3.30;;
42840;SDS011;28491;46.898;7.660;2022-11-06T04:51:21;3.78;;;2.65;;
42840;SDS011;28491;46.898;7.660;2022-11-06T04:53:51;4.35;;;3.17;;
42840;SDS011;28491;46.898;7.660;2022-11-06T04:56:31;4.60;;;3.42;;
42840;SDS011;28491;46.898;7.660;2022-11-06T04:58:58;4.57;;;2.85;;
42840;SDS011;28491;46.898;7.660;2022-11-06T05:01:24;5.20;;;3.30;;
42840;SDS011;28491;46.898;7.660;2022-11-06T05:03:50;5.65;;;3.80;;
42840;SDS011;28491;46.898;7.660;2022-11-06T05:06:15;5.78;;;2.83;;
42840;SDS011;28491;46.898;7.660;2022-11-06T05:08:41;8.48;;;3.17;;
42840;SDS011;28491;46.898;7.660;2022-11-06T05:11:07;6.80;;;2.97;;
42840;SDS011;28491;46.898;7.660;2022-11-06T05:13:33;4.53;;;3.10;;
42840;SDS011;28491;46.898;7.660;2022-11-06T05:15:59;3.63;;;2.70;;
42840;SDS011;28491;46.898;7.660;2022-11-06T05:18:25;3.70;;;2.70;;
42840;SDS011;28491;46.898;7.660;2022-11-06T05:20:51;4.38;;;3.33;;
42840;SDS011;28491;46.898;7.660;2022-11-06T05:23:37;5.30;;;2.92;;
42840;SDS011;28491;46.898;7.660;2022-11-06T05:26:04;5.75;;;3.17;;
42840;SDS011;28491;46.898;7.660;2022-11-06T05:28:30;3.50;;;2.60;;
42840;SDS011;28491;46.898;7.660;2022-11-06T05:30:55;3.80;;;2.67;;
42840;SDS011;28491;46.898;7.660;2022-11-06T05:33:21;4.30;;;2.88;;
42840;SDS011;28491;46.898;7.660;2022-11-06T05:35:47;3.92;;;2.88;;
42840;SDS011;28491;46.898;7.660;2022-11-06T05:38:13;4.75;;;3.05;;
42840;SDS011;28491;46.898;7.660;2022-11-06T05:40:39;6.15;;;3.70;;
42840;SDS011;28491;46.898;7.660;2022-11-06T05:43:04;4.90;;;3.22;;
42840;SDS011;28491;46.898;7.660;2022-11-06T05:45:30;3.55;;;2.90;;
42840;SDS011;28491;46.898;7.660;2022-11-06T05:47:55;7.85;;;3.00;;
42840;SDS011;28491;46.898;7.660;2022-11-06T05:50:21;4.03;;;2.83;;
42840;SDS011;28491;46.898;7.660;2022-11-06T05:52:46;4.75;;;3.17;;
42840;SDS011;28491;46.898;7.660;2022-11-06T05:55:12;4.20;;;3.17;;
42840;SDS011;28491;46.898;7.660;2022-11-06T05:57:37;8.45;;;3.63;;
42840;SDS011;28491;46.898;7.660;2022-11-06T06:00:03;3.75;;;2.53;;
42840;SDS011;28491;46.898;7.660;2022-11-06T06:02:30;3.10;;;2.55;;
42840;SDS011;28491;46.898;7.660;2022-11-06T06:04:56;3.30;;;2.53;;
42840;SDS011;28491;46.898;7.660;2022-11-06T06:07:21;4.68;;;3.00;;
42840;SDS011;28491;46.898;7.660;2022-11-06T06:09:47;3.97;;;2.75;;
42840;SDS011;28491;46.898;7.660;2022-11-06T06:12:13;17.75;;;9.60;;
42840;SDS011;28491;46.898;7.660;2022-11-06T06:14:38;7.65;;;4.90;;
42840;SDS011;28491;46.898;7.660;2022-11-06T06:17:04;6.03;;;4.00;;
42840;SDS011;28491;46.898;7.660;2022-11-06T06:19:30;4.25;;;2.97;;
42840;SDS011;28491;46.898;7.660;2022-11-06T06:21:55;5.60;;;3.10;;
42840;SDS011;28491;46.898;7.660;2022-11-06T06:24:21;4.88;;;3.25;;
42840;SDS011;28491;46.898;7.660;2022-11-06T06:26:47;5.95;;;3.42;;
42840;SDS011;28491;46.898;7.660;2022-11-06T06:29:12;9.73;;;4.53;;
42840;SDS011;28491;46.898;7.660;2022-11-06T06:31:38;14.02;;;6.47;;
42840;SDS011;28491;46.898;7.660;2022-11-06T06:34:03;5.85;;;3.85;;
42840;SDS011;28491;46.898;7.660;2022-11-06T06:36:29;7.30;;;5.20;;
42840;SDS011;28491;46.898;7.660;2022-11-06T06:38:54;8.18;;;4.90;;
42840;SDS011;28491;46.898;7.660;2022-11-06T06:41:20;7.32;;;4.32;;
42840;SDS011;28491;46.898;7.660;2022-11-06T06:43:48;9.95;;;4.18;;
42840;SDS011;28491;46.898;7.660;2022-11-06T06:46:14;5.20;;;3.42;;
42840;SDS011;28491;46.898;7.660;2022-11-06T06:48:40;7.72;;;3.53;;
42840;SDS011;28491;46.898;7.660;2022-11-06T06:51:06;5.55;;;3.17;;
42840;SDS011;28491;46.898;7.660;2022-11-06T06:53:32;4.40;;;2.78;;
42840;SDS011;28491;46.898;7.660;2022-11-06T06:55:58;5.68;;;2.53;;
42840;SDS011;28491;46.898;7.660;2022-11-06T06:58:24;3.90;;;2.55;;
42840;SDS011;28491;46.898;7.660;2022-11-06T07:00:50;3.65;;;2.40;;
42840;SDS011;28491;46.898;7.660;2022-11-06T07:03:16;3.78;;;2.50;;
42840;SDS011;28491;46.898;7.660;2022-11-06T07:05:42;5.88;;;3.55;;
42840;SDS011;28491;46.898;7.660;2022-11-06T07:08:07;4.38;;;2.95;;
42840;SDS011;28491;46.898;7.660;2022-11-06T07:10:33;7.53;;;3.72;;
42840;SDS011;28491;46.898;7.660;2022-11-06T07:13:00;5.70;;;2.63;;
42840;SDS011;28491;46.898;7.660;2022-11-06T07:15:26;3.30;;;2.25;;
42840;SDS011;28491;46.898;7.660;2022-11-06T07:17:52;3.25;;;2.45;;
42840;SDS011;28491;46.898;7.660;2022-11-06T07:20:17;4.35;;;2.65;;
42840;SDS011;28491;46.898;7.660;2022-11-06T07:22:43;4.22;;;2.92;;
42840;SDS011;28491;46.898;7.660;2022-11-06T07:25:08;4.50;;;2.75;;
42840;SDS011;28491;46.898;7.660;2022-11-06T07:27:34;2.95;;;1.90;;
42840;SDS011;28491;46.898;7.660;2022-11-06T07:29:59;1.85;;;1.42;;
42840;SDS011;28491;46.898;7.660;2022-11-06T07:32:25;5.00;;;2.53;;
42840;SDS011;28491;46.898;7.660;2022-11-06T07:34:51;4.05;;;2.58;;
42840;SDS011;28491;46.898;7.660;2022-11-06T07:37:16;3.17;;;2.08;;
42840;SDS011;28491;46.898;7.660;2022-11-06T07:39:42;4.78;;;2.38;;
42840;SDS011;28491;46.898;7.660;2022-11-06T07:42:08;4.93;;;3.08;;
42840;SDS011;28491;46.898;7.660;2022-11-06T07:44:33;7.15;;;2.67;;
42840;SDS011;28491;46.898;7.660;2022-11-06T07:46:59;4.10;;;2.60;;
42840;SDS011;28491;46.898;7.660;2022-11-06T07:49:24;3.15;;;2.17;;
42840;SDS011;28491;46.898;7.660;2022-11-06T07:51:50;3.80;;;2.28;;
42840;SDS011;28491;46.898;7.660;2022-11-06T07:54:15;3.53;;;2.10;;
42840;SDS011;28491;46.898;7.660;2022-11-06T07:56:41;4.00;;;2.25;;
42840;SDS011;28491;46.898;7.660;2022-11-06T07:59:06;3.17;;;2.40;;
42840;SDS011;28491;46.898;7.660;2022-11-06T08:01:32;3.63;;;2.17;;
42840;SDS011;28491;46.898;7.660;2022-11-06T08:03:58;3.17;;;2.20;;
42840;SDS011;28491;46.898;7.660;2022-11-06T08:06:23;2.90;;;2.10;;
42840;SDS011;28491;46.898;7.660;2022-11-06T08:08:49;3.95;;;1.83;;
42840;SDS011;28491;46.898;7.660;2022-11-06T08:11:14;3.90;;;1.85;;
42840;SDS011;28491;46.898;7.660;2022-11-06T08:13:40;2.58;;;1.88;;
42840;SDS011;28491;46.898;7.660;2022-11-06T08:16:06;2.25;;;1.63;;
42840;SDS011;28491;46.898;7.660;2022-11-06T08:18:37;3.42;;;2.20;;
42840;SDS011;28491;46.898;7.660;2022-11-06T08:21:03;2.38;;;1.90;;
42840;SDS011;28491;46.898;7.660;2022-11-06T08:23:29;3.22;;;2.30;;
42840;SDS011;28491;46.898;7.660;2022-11-06T08:25:58;2.47;;;1.95;;
42840;SDS011;28491;46.898;7.660;2022-11-06T08:28:25;4.63;;;2.55;;
42840;SDS011;28491;46.898;7.660;2022-11-06T08:30:51;4.50;;;3.60;;
42840;SDS011;28491;46.898;7.660;2022-11-06T08:33:17;4.15;;;3.22;;
42840;SDS011;28491;46.898;7.660;2022-11-06T08:35:43;3.95;;;2.60;;
42840;SDS011;28491;46.898;7.660;2022-11-06T08:38:09;4.68;;;2.90;;
42840;SDS011;28491;46.898;7.660;2022-11-06T08:40:35;4.75;;;3.30;;
42840;SDS011;28491;46.898;7.660;2022-11-06T08:43:03;4.72;;;3.17;;
42840;SDS011;28491;46.898;7.660;2022-11-06T08:45:39;4.35;;;3.03;;
42840;SDS011;28491;46.898;7.660;2022-11-06T08:48:07;4.95;;;3.22;;
42840;SDS011;28491;46.898;7.660;2022-11-06T08:50:34;4.25;;;2.92;;
42840;SDS011;28491;46.898;7.660;2022-11-06T08:53:01;6.38;;;3.45;;
42840;SDS011;28491;46.898;7.660;2022-11-06T08:55:33;3.75;;;2.53;;
42840;SDS011;28491;46.898;7.660;2022-11-06T08:58:01;4.28;;;2.97;;
42840;SDS011;28491;46.898;7.660;2022-11-06T09:00:27;6.68;;;3.20;;
42840;SDS011;28491;46.898;7.660;2022-11-06T09:03:00;4.45;;;3.38;;
42840;SDS011;28491;46.898;7.660;2022-11-06T09:05:30;6.47;;;3.80;;
42840;SDS011;28491;46.898;7.660;2022-11-06T09:07:56;5.70;;;3.85;;
42840;SDS011;28491;46.898;7.660;2022-11-06T09:10:23;6.13;;;4.00;;
42840;SDS011;28491;46.898;7.660;2022-11-06T09:12:49;6.20;;;3.17;;
42840;SDS011;28491;46.898;7.660;2022-11-06T09:15:15;4.70;;;3.42;;
42840;SDS011;28491;46.898;7.660;2022-11-06T09:17:43;6.20;;;3.65;;
42840;SDS011;28491;46.898;7.660;2022-11-06T09:20:11;5.35;;;3.88;;
42840;SDS011;28491;46.898;7.660;2022-11-06T09:22:37;5.75;;;4.03;;
42840;SDS011;28491;46.898;7.660;2022-11-06T09:25:03;4.85;;;3.20;;
42840;SDS011;28491;46.898;7.660;2022-11-06T09:27:29;4.63;;;3.30;;
42840;SDS011;28491;46.898;7.660;2022-11-06T09:29:55;5.30;;;3.50;;
42840;SDS011;28491;46.898;7.660;2022-11-06T09:32:20;5.43;;;3.60;;
42840;SDS011;28491;46.898;7.660;2022-11-06T09:34:46;5.03;;;3.50;;
42840;SDS011;28491;46.898;7.660;2022-11-06T09:37:11;4.60;;;3.67;;
42840;SDS011;28491;46.898;7.660;2022-11-06T09:39:37;4.63;;;3.65;;
42840;SDS011;28491;46.898;7.660;2022-11-06T09:47:35;4.68;;;3.28;;
42840;SDS011;28491;46.898;7.660;2022-11-06T09:50:03;3.57;;;2.93;;
42840;SDS011;28491;46.898;7.660;2022-11-06T09:52:37;4.32;;;3.25;;
42840;SDS011;28491;46.898;7.660;2022-11-06T09:55:20;5.30;;;4.20;;
42840;SDS011;28491;46.898;7.660;2022-11-06T09:58:10;5.80;;;4.10;;
42840;SDS011;28491;46.898;7.660;2022-11-06T10:00:40;4.03;;;2.83;;
42840;SDS011;28491;46.898;7.660;2022-11-06T10:03:11;4.50;;;3.55;;
42840;SDS011;28491;46.898;7.660;2022-11-06T10:05:41;5.05;;;2.53;;
42840;SDS011;28491;46.898;7.660;2022-11-06T10:08:19;3.95;;;3.10;;
42840;SDS011;28491;46.898;7.660;2022-11-06T10:11:01;4.40;;;3.35;;
42840;SDS011;28491;46.898;7.660;2022-11-06T10:13:44;3.95;;;2.70;;
42840;SDS011;28491;46.898;7.660;2022-11-06T10:22:15;3.65;;;2.75;;
42840;SDS011;28491;46.898;7.660;2022-11-06T10:24:46;4.03;;;2.65;;
42840;SDS011;28491;46.898;7.660;2022-11-06T10:30:12;4.38;;;2.35;;
42840;SDS011;28491;46.898;7.660;2022-11-06T10:32:46;5.05;;;2.97;;
42840;SDS011;28491;46.898;7.660;2022-11-06T10:37:47;3.45;;;1.88;;
42840;SDS011;28491;46.898;7.660;2022-11-06T10:40:18;3.42;;;2.00;;
42840;SDS011;28491;46.898;7.660;2022-11-06T10:42:49;2.55;;;2.17;;
42840;SDS011;28491;46.898;7.660;2022-11-06T10:45:20;2.83;;;1.90;;
42840;SDS011;28491;46.898;7.660;2022-11-06T10:47:53;3.20;;;2.05;;
42840;SDS011;28491;46.898;7.660;2022-11-06T10:50:23;3.97;;;2.10;;
42840;SDS011;28491;46.898;7.660;2022-11-06T10:53:07;3.15;;;2.38;;
42840;SDS011;28491;46.898;7.660;2022-11-06T10:58:34;3.55;;;2.30;;
42840;SDS011;28491;46.898;7.660;2022-11-06T11:01:00;6.93;;;4.22;;
42840;SDS011;28491;46.898;7.660;2022-11-06T11:03:29;2.53;;;1.80;;
42840;SDS011;28491;46.898;7.660;2022-11-06T11:06:05;4.55;;;2.25;;
42840;SDS011;28491;46.898;7.660;2022-11-06T11:08:31;2.90;;;1.90;;
42840;SDS011;28491;46.898;7.660;2022-11-06T11:11:04;3.22;;;2.55;;
42840;SDS011;28491;46.898;7.660;2022-11-06T11:13:39;2.67;;;1.90;;
42840;SDS011;28491;46.898;7.660;2022-11-06T11:18:45;2.60;;;2.00;;
42840;SDS011;28491;46.898;7.660;2022-11-06T11:21:14;3.40;;;2.00;;
42840;SDS011;28491;46.898;7.660;2022-11-06T11:23:43;2.42;;;1.75;;
42840;SDS011;28491;46.898;7.660;2022-11-06T11:28:53;3.80;;;2.28;;
42840;SDS011;28491;46.898;7.660;2022-11-06T11:31:26;3.28;;;2.10;;
42840;SDS011;28491;46.898;7.660;2022-11-06T11:33:54;4.15;;;2.00;;
42840;SDS011;28491;46.898;7.660;2022-11-06T11:36:22;2.88;;;2.00;;
42840;SDS011;28491;46.898;7.660;2022-11-06T11:38:48;3.72;;;2.03;;
42840;SDS011;28491;46.898;7.660;2022-11-06T11:43:43;4.57;;;2.00;;
42840;SDS011;28491;46.898;7.660;2022-11-06T11:46:36;3.60;;;2.55;;
42840;SDS011;28491;46.898;7.660;2022-11-06T11:49:26;4.45;;;2.70;;
42840;SDS011;28491;46.898;7.660;2022-11-06T11:51:54;3.60;;;2.00;;
42840;SDS011;28491;46.898;7.660;2022-11-06T11:54:26;3.55;;;1.98;;
42840;SDS011;28491;46.898;7.660;2022-11-06T11:56:59;3.00;;;1.98;;
42840;SDS011;28491;46.898;7.660;2022-11-06T12:01:52;3.20;;;2.17;;
42840;SDS011;28491;46.898;7.660;2022-11-06T12:04:30;6.60;;;2.15;;
42840;SDS011;28491;46.898;7.660;2022-11-06T12:07:01;2.42;;;1.70;;
42840;SDS011;28491;46.898;7.660;2022-11-06T12:09:33;4.25;;;2.00;;
42840;SDS011;28491;46.898;7.660;2022-11-06T12:14:52;3.15;;;1.98;;
42840;SDS011;28491;46.898;7.660;2022-11-06T12:17:30;3.75;;;2.20;;
42840;SDS011;28491;46.898;7.660;2022-11-06T12:19:59;3.83;;;2.60;;
42840;SDS011;28491;46.898;7.660;2022-11-06T12:22:29;3.65;;;2.30;;
42840;SDS011;28491;46.898;7.660;2022-11-06T12:25:03;3.97;;;2.40;;
42840;SDS011;28491;46.898;7.660;2022-11-06T12:27:40;3.97;;;2.40;;
42840;SDS011;28491;46.898;7.660;2022-11-06T12:30:11;3.60;;;2.45;;
42840;SDS011;28491;46.898;7.660;2022-11-06T12:32:44;4.00;;;2.83;;
42840;SDS011;28491;46.898;7.660;2022-11-06T12:35:27;3.92;;;2.72;;
42840;SDS011;28491;46.898;7.660;2022-11-06T12:43:16;3.70;;;2.40;;
42840;SDS011;28491;46.898;7.660;2022-11-06T13:05:30;4.82;;;3.80;;
42840;SDS011;28491;46.898;7.660;2022-11-06T13:11:00;4.93;;;3.60;;
42840;SDS011;28491;46.898;7.660;2022-11-06T13:22:33;5.25;;;3.22;;
42840;SDS011;28491;46.898;7.660;2022-11-06T13:27:44;9.23;;;3.35;;
42840;SDS011;28491;46.898;7.660;2022-11-06T13:30:22;4.90;;;3.30;;
42840;SDS011;28491;46.898;7.660;2022-11-06T13:33:10;6.28;;;3.35;;
42840;SDS011;28491;46.898;7.660;2022-11-06T13:35:53;3.97;;;2.92;;
42840;SDS011;28491;46.898;7.660;2022-11-06T13:38:26;4.90;;;3.67;;
42840;SDS011;28491;46.898;7.660;2022-11-06T13:41:01;4.18;;;3.22;;
42840;SDS011;28491;46.898;7.660;2022-11-06T13:43:38;6.00;;;4.40;;
42840;SDS011;28491;46.898;7.660;2022-11-06T13:46:38;5.72;;;3.47;;
42840;SDS011;28491;46.898;7.660;2022-11-06T13:52:08;4.78;;;2.90;;
42840;SDS011;28491;46.898;7.660;2022-11-06T13:54:58;3.92;;;2.95;;
42840;SDS011;28491;46.898;7.660;2022-11-06T13:57:49;3.73;;;2.70;;
42840;SDS011;28491;46.898;7.660;2022-11-06T14:00:21;5.68;;;3.67;;
42840;SDS011;28491;46.898;7.660;2022-11-06T14:05:45;5.47;;;2.90;;
42840;SDS011;28491;46.898;7.660;2022-11-06T14:11:11;9.43;;;7.00;;
42840;SDS011;28491;46.898;7.660;2022-11-06T14:13:39;7.82;;;5.13;;
42840;SDS011;28491;46.898;7.660;2022-11-06T14:16:10;7.45;;;4.25;;
42840;SDS011;28491;46.898;7.660;2022-11-06T14:19:00;5.53;;;3.33;;
42840;SDS011;28491;46.898;7.660;2022-11-06T14:21:42;4.80;;;3.90;;
42840;SDS011;28491;46.898;7.660;2022-11-06T14:26:54;4.22;;;3.38;;
42840;SDS011;28491;46.898;7.660;2022-11-06T14:31:58;5.18;;;3.70;;
42840;SDS011;28491;46.898;7.660;2022-11-06T14:34:42;5.38;;;3.88;;
42840;SDS011;28491;46.898;7.660;2022-11-06T14:42:42;5.45;;;3.33;;
42840;SDS011;28491;46.898;7.660;2022-11-06T14:45:11;6.68;;;3.92;;
42840;SDS011;28491;46.898;7.660;2022-11-06T14:53:01;6.18;;;4.13;;
42840;SDS011;28491;46.898;7.660;2022-11-06T14:55:42;5.35;;;4.00;;
42840;SDS011;28491;46.898;7.660;2022-11-06T14:58:21;5.97;;;4.32;;
42840;SDS011;28491;46.898;7.660;2022-11-06T15:03:19;6.03;;;3.93;;
42840;SDS011;28491;46.898;7.660;2022-11-06T15:05:53;7.45;;;4.70;;
42840;SDS011;28491;46.898;7.660;2022-11-06T15:16:27;6.22;;;4.18;;
42840;SDS011;28491;46.898;7.660;2022-11-06T15:19:14;6.57;;;4.70;;
42840;SDS011;28491;46.898;7.660;2022-11-06T15:27:20;6.00;;;4.57;;
42840;SDS011;28491;46.898;7.660;2022-11-06T15:29:50;7.03;;;4.88;;
42840;SDS011;28491;46.898;7.660;2022-11-06T15:32:19;5.43;;;3.90;;
42840;SDS011;28491;46.898;7.660;2022-11-06T15:37:46;5.13;;;4.15;;
42840;SDS011;28491;46.898;7.660;2022-11-06T15:40:28;7.55;;;4.85;;
42840;SDS011;28491;46.898;7.660;2022-11-06T15:43:05;7.30;;;3.88;;
42840;SDS011;28491;46.898;7.660;2022-11-06T15:45:37;10.43;;;6.57;;
42840;SDS011;28491;46.898;7.660;2022-11-06T15:48:04;7.78;;;5.60;;
42840;SDS011;28491;46.898;7.660;2022-11-06T15:50:32;11.27;;;8.23;;
42840;SDS011;28491;46.898;7.660;2022-11-06T15:55:38;6.20;;;4.80;;
42840;SDS011;28491;46.898;7.660;2022-11-06T16:00:43;5.82;;;4.60;;
42840;SDS011;28491;46.898;7.660;2022-11-06T16:03:10;7.00;;;4.07;;
42840;SDS011;28491;46.898;7.660;2022-11-06T16:05:38;5.70;;;4.07;;
42840;SDS011;28491;46.898;7.660;2022-11-06T16:08:04;4.90;;;3.80;;
42840;SDS011;28491;46.898;7.660;2022-11-06T16:10:31;5.80;;;4.78;;
42840;SDS011;28491;46.898;7.660;2022-11-06T16:13:00;5.95;;;4.55;;
42840;SDS011;28491;46.898;7.660;2022-11-06T16:15:45;6.53;;;4.78;;
42840;SDS011;28491;46.898;7.660;2022-11-06T16:18:36;6.15;;;4.10;;
42840;SDS011;28491;46.898;7.660;2022-11-06T16:21:09;7.57;;;4.15;;
42840;SDS011;28491;46.898;7.660;2022-11-06T16:23:38;7.05;;;4.43;;
42840;SDS011;28491;46.898;7.660;2022-11-06T16:26:07;10.55;;;7.18;;
42840;SDS011;28491;46.898;7.660;2022-11-06T16:28:35;12.00;;;8.77;;
42840;SDS011;28491;46.898;7.660;2022-11-06T16:31:08;7.32;;;4.97;;
42840;SDS011;28491;46.898;7.660;2022-11-06T16:33:38;7.78;;;5.60;;
42840;SDS011;28491;46.898;7.660;2022-11-06T16:36:07;6.63;;;4.45;;
42840;SDS011;28491;46.898;7.660;2022-11-06T16:38:35;12.35;;;8.30;;
42840;SDS011;28491;46.898;7.660;2022-11-06T16:41:05;14.52;;;11.48;;
42840;SDS011;28491;46.898;7.660;2022-11-06T16:43:32;10.50;;;7.53;;
42840;SDS011;28491;46.898;7.660;2022-11-06T16:45:59;9.65;;;7.10;;
42840;SDS011;28491;46.898;7.660;2022-11-06T16:51:28;5.72;;;4.40;;
42840;SDS011;28491;46.898;7.660;2022-11-06T16:56:25;6.18;;;4.28;;
42840;SDS011;28491;46.898;7.660;2022-11-06T16:58:54;7.32;;;5.43;;
42840;SDS011;28491;46.898;7.660;2022-11-06T17:01:43;10.70;;;6.00;;
42840;SDS011;28491;46.898;7.660;2022-11-06T17:04:18;8.55;;;5.28;;
42840;SDS011;28491;46.898;7.660;2022-11-06T17:06:49;8.93;;;5.18;;
42840;SDS011;28491;46.898;7.660;2022-11-06T17:11:46;9.02;;;5.82;;
42840;SDS011;28491;46.898;7.660;2022-11-06T17:14:17;10.75;;;7.20;;
42840;SDS011;28491;46.898;7.660;2022-11-06T17:16:46;7.93;;;6.00;;
42840;SDS011;28491;46.898;7.660;2022-11-06T17:19:23;9.27;;;5.72;;
42840;SDS011;28491;46.898;7.660;2022-11-06T17:21:49;8.68;;;5.18;;
42840;SDS011;28491;46.898;7.660;2022-11-06T17:24:16;5.80;;;4.40;;
42840;SDS011;28491;46.898;7.660;2022-11-06T17:26:46;7.70;;;5.47;;
42840;SDS011;28491;46.898;7.660;2022-11-06T17:29:13;6.25;;;5.05;;
42840;SDS011;28491;46.898;7.660;2022-11-06T17:31:39;8.55;;;5.75;;
42840;SDS011;28491;46.898;7.660;2022-11-06T17:34:05;7.38;;;5.28;;
42840;SDS011;28491;46.898;7.660;2022-11-06T17:36:30;7.63;;;4.80;;
42840;SDS011;28491;46.898;7.660;2022-11-06T17:38:58;6.68;;;5.13;;
42840;SDS011;28491;46.898;7.660;2022-11-06T17:41:24;12.43;;;6.25;;
42840;SDS011;28491;46.898;7.660;2022-11-06T17:46:33;7.50;;;5.63;;
42840;SDS011;28491;46.898;7.660;2022-11-06T17:49:00;12.13;;;6.85;;
42840;SDS011;28491;46.898;7.660;2022-11-06T17:51:29;5.67;;;4.60;;